createdAt,value
2019-05-14T00:05:21.552Z,6.10
2019-05-14T00:11:26.315Z,6.10
2019-05-14T00:17:31.916Z,6.10
2019-05-14T00:23:36.612Z,6.20
2019-05-14T00:29:41.825Z,6.30
2019-05-14T00:35:46.578Z,6.40
2019-05-14T00:41:51.434Z,6.40
2019-05-14T00:47:56.092Z,6.40
2019-05-14T00:54:01.670Z,6.20
2019-05-14T01:00:07.164Z,6.00
2019-05-14T01:06:11.702Z,5.80
2019-05-14T01:12:16.232Z,5.80
2019-05-14T01:18:21.932Z,5.70
2019-05-14T01:24:26.725Z,5.40
2019-05-14T01:30:31.991Z,5.30
2019-05-14T01:36:36.841Z,5.30
2019-05-14T01:42:41.805Z,5.20
2019-05-14T01:48:46.528Z,5.10
2019-05-14T01:54:51.619Z,5.10
2019-05-14T02:00:56.416Z,5.00
2019-05-14T02:07:02.194Z,5.00
2019-05-14T02:13:07.847Z,5.10
2019-05-14T02:19:12.805Z,5.10
2019-05-14T02:25:17.668Z,4.90
2019-05-14T02:31:22.478Z,4.70
2019-05-14T02:37:29.894Z,4.70
2019-05-14T02:43:33.762Z,4.60
2019-05-14T02:49:39.849Z,4.50
2019-05-14T02:55:44.826Z,4.30
2019-05-14T03:01:50.377Z,4.20
2019-05-14T03:07:55.355Z,4.20
2019-05-14T03:14:00.435Z,4.10
2019-05-14T03:20:09.179Z,4.10
2019-05-14T03:26:14.112Z,4.20
2019-05-14T03:32:22.939Z,4.30
2019-05-14T03:38:29.612Z,4.30
2019-05-14T03:44:35.632Z,4.20
2019-05-14T03:50:41.359Z,4.30
2019-05-14T03:56:49.354Z,4.30
2019-05-14T04:02:53.194Z,4.20
2019-05-14T04:09:00.844Z,4.10
2019-05-14T04:15:09.802Z,4.00
2019-05-14T04:21:20.266Z,4.00
2019-05-14T04:27:25.357Z,4.30
2019-05-14T04:33:30.668Z,4.60
2019-05-14T04:39:39.556Z,4.80
2019-05-14T04:45:43.983Z,5.00
2019-05-14T04:51:50.318Z,5.20
2019-05-14T04:57:55.444Z,5.40
2019-05-14T05:04:00.281Z,5.60
2019-05-14T05:10:10.177Z,5.70
2019-05-14T05:16:18.921Z,5.90
2019-05-14T05:22:22.543Z,6.10
2019-05-14T05:28:28.305Z,6.40
2019-05-14T05:34:33.124Z,6.70
2019-05-14T05:40:39.139Z,6.90
2019-05-14T05:46:43.880Z,7.20
2019-05-14T05:52:49.871Z,7.40
2019-05-14T05:58:54.836Z,7.60
2019-05-14T06:04:59.458Z,7.90
2019-05-14T06:11:04.096Z,8.10
2019-05-14T06:17:08.798Z,8.20
2019-05-14T06:23:13.350Z,8.40
2019-05-14T06:29:18.666Z,8.60
2019-05-14T06:35:23.329Z,8.90
2019-05-14T06:41:28.493Z,9.00
2019-05-14T06:47:33.161Z,9.20
2019-05-14T06:53:39.247Z,9.40
2019-05-14T06:59:44.047Z,9.80
2019-05-14T07:05:51.572Z,9.90
2019-05-14T07:11:58.418Z,10.30
2019-05-14T07:18:02.499Z,10.70
2019-05-14T07:24:08.728Z,10.90
2019-05-14T07:30:14.022Z,11.50
2019-05-14T07:36:19.055Z,11.90
2019-05-14T07:42:23.837Z,11.90
2019-05-14T07:48:28.912Z,12.00
2019-05-14T07:54:33.519Z,12.40
2019-05-14T08:00:40.204Z,12.60
2019-05-14T08:06:44.605Z,12.80
2019-05-14T08:12:49.157Z,13.00
2019-05-14T08:18:53.786Z,13.10
2019-05-14T08:24:58.341Z,13.40
2019-05-14T08:31:02.961Z,13.40
2019-05-14T08:37:08.226Z,13.40
2019-05-14T08:43:13.036Z,13.30
2019-05-14T08:49:20.591Z,14.10
2019-05-14T08:55:25.573Z,14.30
2019-05-14T09:01:30.323Z,14.60
2019-05-14T09:07:40.091Z,15.10
2019-05-14T09:13:49.033Z,15.30
2019-05-14T09:20:02.398Z,15.60
2019-05-14T09:26:01.356Z,15.90
2019-05-14T09:32:06.255Z,15.70
2019-05-14T09:38:10.943Z,15.70
2019-05-14T09:44:15.667Z,16.70
2019-05-14T09:50:23.320Z,16.50
2019-05-14T09:56:30.823Z,15.90
2019-05-14T10:02:38.979Z,15.80
2019-05-14T10:08:42.744Z,15.50
2019-05-14T10:14:50.123Z,16.10
2019-05-14T10:20:55.755Z,15.70
2019-05-14T10:27:01.869Z,15.70
2019-05-14T10:33:14.120Z,16.50
2019-05-14T10:39:13.670Z,16.90
2019-05-14T10:45:18.814Z,17.10
2019-05-14T10:51:23.670Z,16.70
2019-05-14T10:57:29.029Z,16.50
2019-05-14T11:03:33.698Z,17.50
2019-05-14T11:09:38.296Z,17.80
2019-05-14T11:15:51.337Z,18.10
2019-05-14T11:21:57.941Z,18.70
2019-05-14T11:28:02.230Z,19.20
2019-05-14T11:34:08.313Z,18.40
2019-05-14T11:40:13.442Z,16.50
2019-05-14T11:46:33.279Z,15.00
2019-05-14T11:52:28.674Z,16.80
2019-05-14T11:58:33.543Z,19.00
2019-05-14T12:04:39.153Z,20.30
2019-05-14T12:10:44.021Z,19.30
2019-05-14T12:16:53.453Z,17.80
2019-05-14T12:23:00.890Z,18.90
2019-05-14T12:29:05.575Z,17.70
2019-05-14T12:35:10.211Z,18.10
2019-05-14T12:41:14.770Z,19.80
2019-05-14T12:47:19.362Z,20.80
2019-05-14T12:53:23.920Z,19.40
2019-05-14T12:59:28.728Z,17.70
2019-05-14T13:05:33.348Z,18.20
2019-05-14T13:11:41.315Z,18.90
2019-05-14T13:17:48.385Z,17.90
2019-05-14T13:23:53.245Z,19.90
2019-05-14T13:29:59.198Z,18.90
2019-05-14T13:36:04.109Z,17.70
2019-05-14T13:42:11.851Z,17.30
2019-05-14T13:48:15.130Z,16.70
2019-05-14T13:54:19.717Z,16.10
2019-05-14T14:00:24.703Z,15.70
2019-05-14T14:06:29.593Z,15.10
2019-05-14T14:12:34.232Z,18.50
2019-05-14T14:18:39.498Z,20.50
2019-05-14T14:24:44.329Z,20.70
2019-05-14T14:30:49.266Z,20.20
2019-05-14T14:36:55.203Z,19.40
2019-05-14T14:43:00.165Z,17.90
2019-05-14T14:49:04.763Z,16.60
2019-05-14T14:55:09.648Z,17.40
2019-05-14T15:01:14.305Z,19.70
2019-05-14T15:07:18.872Z,22.10
2019-05-14T15:13:24.656Z,24.00
2019-05-14T15:19:29.887Z,22.90
2019-05-14T15:25:34.585Z,21.40
2019-05-14T15:31:39.206Z,22.80
2019-05-14T15:37:43.840Z,23.30
2019-05-14T15:43:48.416Z,24.50
2019-05-14T15:49:53.054Z,20.40
2019-05-14T15:55:57.605Z,18.70
2019-05-14T16:02:02.247Z,17.50
2019-05-14T16:08:06.839Z,16.70
2019-05-14T16:14:11.377Z,16.10
2019-05-14T16:20:18.716Z,15.70
2019-05-14T16:26:22.496Z,16.80
2019-05-14T16:32:28.472Z,17.90
2019-05-14T16:38:33.289Z,16.40
2019-05-14T16:44:39.150Z,15.50
2019-05-14T16:50:43.909Z,15.70
2019-05-14T16:56:48.563Z,18.60
2019-05-14T17:02:53.171Z,20.60
2019-05-14T17:08:59.469Z,20.70
2019-05-14T17:15:04.780Z,19.20
2019-05-14T17:21:09.439Z,20.50
2019-05-14T17:27:14.118Z,20.90
2019-05-14T17:33:18.704Z,18.80
2019-05-14T17:39:23.255Z,17.60
2019-05-14T17:45:28.542Z,17.70
2019-05-14T17:51:33.214Z,16.80
2019-05-14T17:57:44.946Z,16.20
2019-05-14T18:03:44.094Z,16.80
2019-05-14T18:09:48.719Z,17.20
2019-05-14T18:15:53.342Z,17.90
2019-05-14T18:21:59.274Z,18.30
2019-05-14T18:28:04.145Z,18.10
2019-05-14T18:34:08.779Z,17.10
2019-05-14T18:40:13.454Z,16.10
2019-05-14T18:46:19.248Z,14.90
2019-05-14T18:52:23.993Z,14.10
2019-05-14T18:58:29.337Z,13.30
2019-05-14T19:04:34.265Z,12.30
2019-05-14T19:10:39.173Z,11.90
2019-05-14T19:16:43.867Z,11.70
2019-05-14T19:22:49.166Z,11.30
2019-05-14T19:28:53.974Z,10.40
2019-05-14T19:34:58.520Z,9.80
2019-05-14T19:41:03.278Z,9.30
2019-05-14T19:47:07.838Z,8.90
2019-05-14T19:53:12.509Z,8.60
2019-05-14T19:59:18.333Z,8.30
2019-05-14T20:05:23.050Z,8.10
2019-05-14T20:11:28.917Z,7.80
2019-05-14T20:17:33.789Z,7.70
2019-05-14T20:23:38.833Z,7.60
2019-05-14T20:29:43.489Z,7.40
2019-05-14T20:35:48.748Z,7.20
2019-05-14T20:41:53.530Z,7.00
2019-05-14T20:47:58.691Z,7.00
2019-05-14T20:54:03.371Z,6.90
2019-05-14T21:00:11.345Z,6.70
2019-05-14T21:06:15.465Z,6.70
2019-05-14T21:12:20.038Z,6.60
2019-05-14T21:18:34.730Z,6.50
2019-05-14T21:24:30.993Z,6.30
2019-05-14T21:30:35.572Z,6.30
2019-05-14T21:36:41.776Z,6.20
2019-05-14T21:42:48.610Z,6.10
2019-05-14T21:48:52.668Z,6.00
2019-05-14T21:54:58.657Z,6.00
2019-05-14T22:01:04.214Z,6.00
2019-05-14T22:07:09.134Z,5.90
2019-05-14T22:13:13.958Z,5.80
2019-05-14T22:19:19.077Z,5.80
2019-05-14T22:25:23.810Z,5.80
2019-05-14T22:31:29.070Z,5.80
2019-05-14T22:37:33.811Z,5.70
2019-05-14T22:43:38.506Z,5.60
2019-05-14T22:49:43.130Z,5.40
2019-05-14T22:55:49.096Z,5.40
2019-05-14T23:01:54.932Z,5.30
2019-05-14T23:07:59.517Z,5.20
2019-05-14T23:14:04.140Z,5.00
2019-05-14T23:20:10.031Z,4.80
2019-05-14T23:26:14.608Z,4.70
2019-05-14T23:32:19.309Z,4.70
2019-05-14T23:38:24.549Z,4.60
2019-05-14T23:44:29.419Z,4.50
2019-05-14T23:50:34.049Z,4.40
2019-05-14T23:56:38.736Z,4.40
